Time;durP1;ratioP1;P1;durP2;ratioP2;P2;SDS_P1;SDS_P2;PMS_P1;PMS_P2;Temp;Humidity;BMP_temperature;BMP_pressure;BME280_temperature;BME280_humidity;BME280_pressure;Samples;Min_cycle;Max_cycle;Signal;HPM_P1;HPM_P2
2023/10/20 00:00:35;;;;;;;31.17;18.30;;;8.90;99.90;;;;;;5016642;28;20075;-71
2023/10/20 00:03:02;;;;;;;38.92;20.20;;;8.90;99.90;;;;;;5016870;28;20045;-71
2023/10/20 00:05:27;;;;;;;37.15;19.73;;;8.90;99.90;;;;;;5033029;28;20049;-71
2023/10/20 00:07:53;;;;;;;37.20;20.52;;;8.90;99.90;;;;;;5015865;28;20033;-71
2023/10/20 00:10:19;;;;;;;35.75;20.23;;;8.90;99.90;;;;;;5032930;28;20046;-71
2023/10/20 00:12:45;;;;;;;35.03;20.70;;;8.90;99.90;;;;;;5032820;28;20045;-71
2023/10/20 00:15:13;;;;;;;40.92;21.35;;;8.90;99.90;;;;;;5032862;28;20052;-71
2023/10/20 00:17:40;;;;;;;31.55;18.38;;;8.90;99.90;;;;;;5016337;28;20042;-71
2023/10/20 00:20:06;;;;;;;34.00;19.42;;;8.90;99.90;;;;;;5032745;28;20037;-71
2023/10/20 00:22:31;;;;;;;52.25;20.05;;;8.90;99.90;;;;;;5032896;28;20450;-71
2023/10/20 00:24:58;;;;;;;32.17;19.40;;;8.80;99.90;;;;;;5032671;28;20125;-71
2023/10/20 00:27:23;;;;;;;31.60;17.92;;;8.80;99.90;;;;;;5033051;28;20490;-71
2023/10/20 00:29:49;;;;;;;44.75;20.23;;;8.80;99.90;;;;;;5032559;28;20045;-71
2023/10/20 00:32:15;;;;;;;34.72;17.67;;;8.80;99.90;;;;;;5032539;28;20124;-71
2023/10/20 00:34:40;;;;;;;45.50;18.70;;;8.80;99.90;;;;;;5032820;28;20053;-71
2023/10/20 00:37:06;;;;;;;37.03;18.70;;;8.80;99.90;;;;;;5015984;28;20470;-71
2023/10/20 00:39:34;;;;;;;36.58;19.20;;;8.80;99.90;;;;;;5032341;28;20054;-71
2023/10/20 00:42:00;;;;;;;41.22;19.90;;;8.70;99.90;;;;;;5032424;28;20042;-71
2023/10/20 00:44:25;;;;;;;37.58;19.23;;;8.80;99.90;;;;;;5032300;28;20033;-71
2023/10/20 00:46:52;;;;;;;44.33;20.10;;;8.80;99.90;;;;;;5032146;28;20048;-71
2023/10/20 00:49:17;;;;;;;34.25;19.55;;;8.80;99.90;;;;;;5032318;28;20038;-71
2023/10/20 00:51:43;;;;;;;36.35;19.42;;;8.80;99.90;;;;;;5032245;28;20107;-71
2023/10/20 00:54:13;;;;;;;49.40;20.67;;;8.70;99.90;;;;;;5032473;28;20033;-71
2023/10/20 00:56:41;;;;;;;52.80;21.55;;;8.80;99.90;;;;;;5032152;28;20037;-71
2023/10/20 00:59:08;;;;;;;42.15;20.75;;;8.70;99.90;;;;;;5015596;28;20037;-71
2023/10/20 01:01:34;;;;;;;52.38;21.60;;;8.70;99.90;;;;;;5032127;28;20491;-71
2023/10/20 01:04:00;;;;;;;45.88;20.42;;;8.70;99.90;;;;;;5032073;28;20193;-71
2023/10/20 01:06:26;;;;;;;50.83;21.70;;;8.70;99.90;;;;;;5032025;28;20124;-71
2023/10/20 01:08:56;;;;;;;44.40;22.17;;;8.70;99.90;;;;;;5031915;28;20131;-71
2023/10/20 01:11:22;;;;;;;48.83;22.23;;;8.70;99.90;;;;;;5031996;28;20049;-71
2023/10/20 01:13:47;;;;;;;51.67;21.83;;;8.70;99.90;;;;;;5031925;28;20033;-71
2023/10/20 01:16:13;;;;;;;46.53;20.75;;;8.70;99.90;;;;;;5031940;28;20146;-71
2023/10/20 01:18:39;;;;;;;64.85;23.33;;;8.70;99.90;;;;;;5031823;28;20048;-71
2023/10/20 01:21:04;;;;;;;69.07;22.77;;;8.60;99.90;;;;;;5031753;28;20033;-71
2023/10/20 01:23:30;;;;;;;57.65;21.65;;;8.70;99.90;;;;;;5031836;28;20037;-71
2023/10/20 01:25:56;;;;;;;58.58;23.00;;;8.70;99.90;;;;;;5031781;28;20120;-71
2023/10/20 01:28:22;;;;;;;47.83;22.02;;;8.70;99.90;;;;;;5031715;28;20041;-71
2023/10/20 01:30:48;;;;;;;47.85;21.00;;;8.70;99.90;;;;;;5031734;28;20050;-71
2023/10/20 01:33:13;;;;;;;49.13;21.83;;;8.60;99.90;;;;;;5031763;28;20120;-71
2023/10/20 01:35:39;;;;;;;54.72;23.08;;;8.70;99.90;;;;;;5031697;28;20037;-71
2023/10/20 01:38:05;;;;;;;47.50;23.95;;;8.60;99.90;;;;;;5031621;28;20124;-71
2023/10/20 01:40:30;;;;;;;64.20;25.00;;;8.60;99.90;;;;;;5031614;28;20042;-71
2023/10/20 01:42:57;;;;;;;62.50;24.10;;;8.60;99.90;;;;;;5031677;28;20045;-71
2023/10/20 01:45:22;;;;;;;48.53;23.10;;;8.60;99.90;;;;;;5031898;28;20038;-71
2023/10/20 01:47:49;;;;;;;51.65;24.42;;;8.70;99.90;;;;;;5031709;28;20053;-71
2023/10/20 01:50:15;;;;;;;37.67;20.88;;;8.70;99.90;;;;;;5031560;28;20108;-71
2023/10/20 01:52:42;;;;;;;59.13;25.05;;;8.70;99.90;;;;;;5031797;28;20041;-71
2023/10/20 01:55:09;;;;;;;52.65;25.90;;;8.70;99.90;;;;;;5031559;28;20123;-71
2023/10/20 01:57:35;;;;;;;56.72;23.88;;;8.60;99.90;;;;;;5031698;28;20098;-71
2023/10/20 02:00:02;;;;;;;51.15;24.27;;;8.70;99.90;;;;;;5031429;28;20573;-71
2023/10/20 02:02:27;;;;;;;57.83;24.50;;;8.60;99.90;;;;;;5031486;28;20041;-71
2023/10/20 02:04:54;;;;;;;47.70;23.42;;;8.60;99.90;;;;;;5031475;28;20045;-71
2023/10/20 02:07:20;;;;;;;45.47;23.77;;;8.60;99.90;;;;;;5031628;28;20045;-71
2023/10/20 02:09:45;;;;;;;40.80;21.83;;;8.60;99.90;;;;;;5031410;28;20128;-71
2023/10/20 02:12:12;;;;;;;46.38;23.90;;;8.60;99.90;;;;;;5031677;28;20113;-71
2023/10/20 02:14:37;;;;;;;69.00;23.88;;;8.60;99.90;;;;;;5031381;28;20072;-71
2023/10/20 02:17:03;;;;;;;50.97;22.50;;;8.50;99.90;;;;;;5031301;28;20076;-71
2023/10/20 02:19:29;;;;;;;60.38;23.75;;;8.60;99.90;;;;;;5031231;28;20395;-71
2023/10/20 02:21:55;;;;;;;49.70;22.17;;;8.50;99.90;;;;;;5031340;28;20043;-71
2023/10/20 02:24:20;;;;;;;50.92;24.30;;;8.50;99.90;;;;;;5031325;28;20049;-71
2023/10/20 02:26:46;;;;;;;43.42;22.10;;;8.60;99.90;;;;;;5031456;28;20041;-71
2023/10/20 02:29:12;;;;;;;52.80;22.83;;;8.60;99.90;;;;;;5031267;28;20505;-71
2023/10/20 02:31:38;;;;;;;37.13;19.98;;;8.60;99.90;;;;;;5032608;28;20041;-71
2023/10/20 02:34:03;;;;;;;44.60;20.90;;;8.60;99.90;;;;;;5035063;28;20045;-71
2023/10/20 02:36:30;;;;;;;42.67;20.90;;;8.60;99.90;;;;;;5018267;28;20505;-71
2023/10/20 02:38:56;;;;;;;44.15;21.35;;;8.60;99.90;;;;;;5034541;28;20049;-71
2023/10/20 02:41:21;;;;;;;48.80;24.25;;;8.60;99.90;;;;;;5034641;28;20037;-71
2023/10/20 02:43:47;;;;;;;46.72;21.58;;;8.60;99.90;;;;;;5034604;28;20037;-71
2023/10/20 02:46:13;;;;;;;45.95;20.98;;;8.50;99.90;;;;;;5034538;28;20037;-71
2023/10/20 02:48:39;;;;;;;42.53;20.60;;;8.60;99.90;;;;;;5034356;28;20050;-71
2023/10/20 02:51:12;;;;;;;44.40;23.08;;;8.60;99.90;;;;;;5034703;28;20048;-71
2023/10/20 02:53:40;;;;;;;;;;;8.60;99.90;;;;;;5034867;28;20041;-71
2023/10/20 02:56:11;;;;;;;39.08;22.10;;;8.50;99.90;;;;;;5034600;28;19917;-71
2023/10/20 02:58:37;;;;;;;48.00;22.33;;;8.50;99.90;;;;;;5034181;28;20045;-71
2023/10/20 03:01:06;;;;;;;42.42;22.02;;;8.50;99.90;;;;;;5034515;28;20048;-71
2023/10/20 03:03:32;;;;;;;40.72;22.90;;;8.50;99.90;;;;;;5034234;28;20033;-71
2023/10/20 03:06:00;;;;;;;42.20;22.38;;;8.50;99.90;;;;;;5034210;28;20120;-71
2023/10/20 03:08:25;;;;;;;45.65;22.95;;;8.50;99.90;;;;;;5034025;28;20041;-71
2023/10/20 03:10:51;;;;;;;41.08;22.52;;;8.50;99.90;;;;;;5034336;28;20037;-71
2023/10/20 03:13:19;;;;;;;39.55;21.35;;;8.50;99.90;;;;;;5034035;28;20453;-71
2023/10/20 03:15:45;;;;;;;45.90;20.08;;;8.50;99.90;;;;;;5034256;28;20126;-71
2023/10/20 03:18:13;;;;;;;44.50;20.73;;;8.50;99.90;;;;;;5034364;28;20517;-71
2023/10/20 03:20:39;;;;;;;37.55;20.45;;;8.50;99.90;;;;;;5033852;28;20042;-72
2023/10/20 03:23:04;;;;;;;44.17;22.88;;;8.50;99.90;;;;;;5017683;28;20560;-72
2023/10/20 03:25:33;;;;;;;35.28;18.88;;;8.50;99.90;;;;;;5033859;28;20617;-72
2023/10/20 03:27:58;;;;;;;36.90;20.05;;;8.50;99.90;;;;;;5033707;28;20037;-72
2023/10/20 03:30:24;;;;;;;41.75;21.25;;;8.50;99.90;;;;;;5033720;28;20088;-72
2023/10/20 03:32:50;;;;;;;39.95;20.48;;;8.40;99.90;;;;;;5033689;28;20038;-72
2023/10/20 03:35:16;;;;;;;31.90;19.52;;;8.50;99.90;;;;;;5033619;28;20048;-72
2023/10/20 03:37:42;;;;;;;38.60;19.20;;;8.50;99.90;;;;;;5033788;28;20041;-71
2023/10/20 03:40:16;;;;;;;29.40;19.08;;;8.50;99.90;;;;;;5033444;28;20046;-72
2023/10/20 03:42:44;;;;;;;26.75;17.55;;;8.40;99.90;;;;;;5033376;28;20048;-72
2023/10/20 03:45:10;;;;;;;30.67;18.00;;;8.50;99.90;;;;;;5016959;28;20033;-72
2023/10/20 03:47:39;;;;;;;33.50;19.60;;;8.50;99.90;;;;;;5033229;28;20486;-72
2023/10/20 03:50:14;;;;;;;36.45;18.17;;;8.50;99.90;;;;;;5033313;28;20037;-72
2023/10/20 03:52:41;;;;;;;36.78;20.83;;;8.50;99.90;;;;;;5017064;28;20555;-72
2023/10/20 03:55:08;;;;;;;33.00;18.05;;;8.50;99.90;;;;;;5033500;28;20055;-72
2023/10/20 03:57:34;;;;;;;29.35;18.45;;;8.50;99.90;;;;;;5033434;28;20124;-72
2023/10/20 04:00:15;;;;;;;37.65;20.27;;;8.40;99.90;;;;;;5033149;28;20601;-72
2023/10/20 04:02:41;;;;;;;29.08;17.65;;;8.40;99.90;;;;;;5033409;28;20041;-72
2023/10/20 04:05:07;;;;;;;34.65;18.40;;;8.40;99.90;;;;;;5033059;28;20040;-72
2023/10/20 04:07:32;;;;;;;30.92;17.75;;;8.50;99.90;;;;;;5016727;28;20043;-72
2023/10/20 04:09:59;;;;;;;33.53;18.77;;;8.50;99.90;;;;;;5033129;28;20136;-72
2023/10/20 04:12:27;;;;;;;33.45;19.00;;;8.50;99.90;;;;;;5032932;28;20502;-72
2023/10/20 04:14:55;;;;;;;30.88;17.90;;;8.50;99.90;;;;;;5032892;28;20056;-72
2023/10/20 04:17:21;;;;;;;30.85;16.92;;;8.40;99.90;;;;;;5032820;28;20049;-72
2023/10/20 04:19:47;;;;;;;28.00;17.63;;;8.40;99.90;;;;;;5032777;28;20048;-72
2023/10/20 04:22:13;;;;;;;29.58;17.58;;;8.40;99.90;;;;;;5032761;28;20037;-72
2023/10/20 04:24:41;;;;;;;32.10;17.13;;;8.40;99.90;;;;;;5032672;28;20103;-72
2023/10/20 04:27:20;;;;;;;27.23;16.63;;;8.40;99.90;;;;;;5032880;28;20056;-72
2023/10/20 04:43:39;;;;;;;30.38;16.85;;;8.30;99.90;;;;;;5032386;28;20049;-72
2023/10/20 04:46:58;;;;;;;27.38;16.58;;;8.30;99.90;;;;;;5032396;28;20077;-72
2023/10/20 04:49:28;;;;;;;31.15;16.55;;;8.30;99.90;;;;;;5031922;28;20045;-72
2023/10/20 05:00:31;;;;;;;26.98;16.30;;;8.30;99.90;;;;;;5031922;28;20041;-72
2023/10/20 05:02:56;;;;;;;30.25;16.95;;;8.30;99.90;;;;;;5032450;28;20104;-72
2023/10/20 05:07:52;;;;;;;25.48;15.35;;;8.30;99.90;;;;;;5032162;28;20045;-72
2023/10/20 05:10:19;;;;;;;26.42;15.82;;;8.30;99.90;;;;;;5031971;28;20421;-72
2023/10/20 05:12:48;;;;;;;29.02;17.55;;;8.30;99.90;;;;;;5032213;28;20222;-72
2023/10/20 05:15:14;;;;;;;29.17;15.48;;;8.30;99.90;;;;;;5031968;28;20045;-72
2023/10/20 05:17:40;;;;;;;29.73;16.95;;;8.30;99.90;;;;;;5032115;28;20053;-71
2023/10/20 05:20:09;;;;;;;25.75;16.52;;;8.30;99.90;;;;;;5031760;28;20045;-72
2023/10/20 05:22:35;;;;;;;26.05;16.33;;;8.20;99.90;;;;;;5015435;28;20049;-72
2023/10/20 05:25:02;;;;;;;25.90;16.30;;;8.20;99.90;;;;;;5032128;28;20037;-72
2023/10/20 05:27:28;;;;;;;30.02;16.83;;;8.20;99.90;;;;;;5031728;28;20402;-71
2023/10/20 05:29:53;;;;;;;29.17;17.02;;;8.20;99.90;;;;;;5031763;28;20525;-72
2023/10/20 05:32:19;;;;;;;26.00;15.88;;;8.20;99.90;;;;;;5031998;28;20057;-72
2023/10/20 05:34:45;;;;;;;25.27;15.73;;;8.20;99.90;;;;;;5031769;28;20038;-72
2023/10/20 05:37:11;;;;;;;29.45;17.02;;;8.20;99.90;;;;;;5015484;28;20049;-72
2023/10/20 05:39:37;;;;;;;21.67;15.90;;;8.20;99.90;;;;;;5031600;28;20529;-72
2023/10/20 05:42:06;;;;;;;27.45;17.10;;;8.20;99.90;;;;;;5031677;28;20129;-72
2023/10/20 05:44:32;;;;;;;26.60;16.63;;;8.20;99.90;;;;;;5031650;28;20037;-72
2023/10/20 05:46:57;;;;;;;28.70;16.73;;;8.20;99.90;;;;;;5031412;28;20072;-72
2023/10/20 05:49:23;;;;;;;23.17;15.57;;;8.10;99.90;;;;;;5031865;28;20041;-72
2023/10/20 05:51:51;;;;;;;25.48;16.00;;;8.20;99.90;;;;;;5031644;28;20041;-72
2023/10/20 05:54:19;;;;;;;23.65;15.55;;;8.10;99.90;;;;;;5031537;28;20052;-72
2023/10/20 05:56:45;;;;;;;28.63;15.15;;;8.10;99.90;;;;;;5031682;28;20494;-72
2023/10/20 05:59:11;;;;;;;23.05;13.30;;;8.10;99.90;;;;;;5031625;28;20041;-72
2023/10/20 06:01:36;;;;;;;20.65;14.35;;;8.10;99.90;;;;;;5031514;28;20472;-72
2023/10/20 06:04:03;;;;;;;19.77;13.38;;;8.10;99.90;;;;;;5031465;28;20041;-72
2023/10/20 06:06:31;;;;;;;18.67;11.90;;;8.20;99.90;;;;;;5032617;28;20077;-72
2023/10/20 06:08:57;;;;;;;21.88;13.00;;;8.10;99.90;;;;;;5035204;28;20497;-72
2023/10/20 06:11:22;;;;;;;19.85;11.90;;;8.10;99.90;;;;;;5035261;28;20124;-71
2023/10/20 06:13:49;;;;;;;17.75;12.60;;;8.20;99.90;;;;;;5035488;28;20038;-72
2023/10/20 06:16:15;;;;;;;17.05;11.68;;;8.10;99.90;;;;;;5035401;28;20045;-72
2023/10/20 06:18:42;;;;;;;17.67;11.88;;;8.10;99.90;;;;;;5034902;28;20459;-72
2023/10/20 06:21:16;;;;;;;17.17;11.18;;;8.20;99.90;;;;;;5035008;28;20486;-72
2023/10/20 06:23:42;;;;;;;14.77;10.07;;;8.10;99.90;;;;;;5035269;28;20041;-72
2023/10/20 06:26:08;;;;;;;17.65;10.27;;;8.10;99.90;;;;;;5035037;28;20493;-72
2023/10/20 06:28:34;;;;;;;15.98;10.70;;;8.10;99.90;;;;;;5034808;28;20044;-72
2023/10/20 06:31:26;;;;;;;18.70;10.25;;;8.10;99.90;;;;;;5034887;28;20042;-72
2023/10/20 06:33:52;;;;;;;16.63;10.27;;;8.10;99.90;;;;;;5034690;28;20041;-72
2023/10/20 06:36:24;;;;;;;14.18;9.55;;;8.10;99.90;;;;;;5034720;28;20414;-71
2023/10/20 06:38:49;;;;;;;14.57;9.32;;;8.10;99.90;;;;;;5035015;28;20037;-71
2023/10/20 06:41:16;;;;;;;14.35;9.25;;;8.10;99.90;;;;;;5034706;28;20494;-72
2023/10/20 06:43:41;;;;;;;17.98;9.50;;;8.10;99.90;;;;;;5034645;28;20068;-72
2023/10/20 06:46:07;;;;;;;13.55;8.93;;;8.10;99.90;;;;;;5034605;28;20045;-72
2023/10/20 06:48:32;;;;;;;15.05;9.05;;;8.10;99.90;;;;;;5034633;28;20029;-72
2023/10/20 06:50:58;;;;;;;15.45;8.40;;;8.10;99.90;;;;;;5034491;28;20588;-72
2023/10/20 06:53:25;;;;;;;13.38;8.00;;;8.10;99.90;;;;;;5034477;28;20091;-72
2023/10/20 06:55:51;;;;;;;13.40;7.97;;;8.10;99.90;;;;;;5034375;28;20414;-72
2023/10/20 06:58:19;;;;;;;14.48;8.68;;;8.10;99.90;;;;;;5034419;28;20041;-71
2023/10/20 07:00:45;;;;;;;12.85;8.05;;;8.10;99.90;;;;;;5034580;28;20041;-72
2023/10/20 07:03:12;;;;;;;14.75;8.10;;;8.10;99.90;;;;;;5034433;28;20124;-72
2023/10/20 07:05:38;;;;;;;13.95;7.47;;;8.20;99.90;;;;;;5034529;28;20446;-72
2023/10/20 07:08:05;;;;;;;10.93;6.85;;;8.10;99.90;;;;;;5034269;28;20520;-71
2023/10/20 07:10:37;;;;;;;13.30;7.28;;;8.20;99.90;;;;;;5034456;28;20037;-72
2023/10/20 07:13:08;;;;;;;12.77;7.78;;;8.20;99.90;;;;;;5034525;28;20046;-72
2023/10/20 07:15:38;;;;;;;11.82;6.97;;;8.20;99.90;;;;;;5034051;28;20498;-72
2023/10/20 07:18:05;;;;;;;12.40;7.10;;;8.20;99.90;;;;;;5033789;28;20063;-72
2023/10/20 07:20:33;;;;;;;12.60;7.55;;;8.20;99.90;;;;;;5033888;28;20421;-72
2023/10/20 07:22:58;;;;;;;10.80;6.35;;;8.10;99.90;;;;;;5033886;28;20049;-72
2023/10/20 07:25:25;;;;;;;11.27;6.78;;;8.10;99.90;;;;;;5033802;28;20037;-72
2023/10/20 07:27:51;;;;;;;10.18;5.82;;;8.10;99.90;;;;;;5033822;28;20116;-72
2023/10/20 07:30:17;;;;;;;10.48;6.65;;;8.10;99.90;;;;;;5034039;28;20080;-72
2023/10/20 07:32:43;;;;;;;11.88;6.68;;;8.10;99.90;;;;;;5033712;28;20490;-72
2023/10/20 07:35:11;;;;;;;11.55;6.28;;;8.10;99.90;;;;;;5033748;28;20038;-72
2023/10/20 07:37:37;;;;;;;9.27;5.72;;;8.10;99.90;;;;;;5033581;28;20048;-72
2023/10/20 07:40:04;;;;;;;12.82;6.63;;;8.20;99.90;;;;;;5033653;28;20041;-72
2023/10/20 07:42:31;;;;;;;9.65;5.57;;;8.20;99.90;;;;;;5033701;28;20069;-72
2023/10/20 07:44:58;;;;;;;7.80;5.38;;;8.20;99.90;;;;;;5016981;28;20414;-72
2023/10/20 07:47:23;;;;;;;10.05;5.75;;;8.20;99.90;;;;;;5033258;28;20044;-71
2023/10/20 07:49:49;;;;;;;8.13;5.15;;;8.20;99.90;;;;;;5033418;28;20124;-71
2023/10/20 07:52:14;;;;;;;6.97;4.57;;;8.20;99.90;;;;;;5016900;28;20045;-72
2023/10/20 07:54:40;;;;;;;9.63;5.50;;;8.20;99.90;;;;;;5033282;28;20073;-72
2023/10/20 07:57:07;;;;;;;7.18;4.20;;;8.10;99.90;;;;;;5033182;28;20048;-72
2023/10/20 07:59:32;;;;;;;10.98;4.97;;;8.20;99.90;;;;;;5033151;28;20056;-72
2023/10/20 08:01:58;;;;;;;7.75;4.60;;;8.20;99.90;;;;;;5033170;28;20045;-72
2023/10/20 08:04:23;;;;;;;9.50;4.60;;;8.10;99.90;;;;;;5033149;28;20037;-72
2023/10/20 08:06:49;;;;;;;7.60;3.95;;;8.20;99.90;;;;;;5032961;28;20063;-72
2023/10/20 08:09:14;;;;;;;5.60;3.50;;;8.20;99.90;;;;;;5033033;28;20041;-72
2023/10/20 08:11:42;;;;;;;4.80;3.45;;;8.10;99.90;;;;;;5033013;28;20044;-72
2023/10/20 08:14:07;;;;;;;6.03;3.63;;;8.20;99.90;;;;;;5016496;28;20087;-72
2023/10/20 08:16:33;;;;;;;6.03;3.30;;;8.20;99.90;;;;;;5033169;28;20037;-72
2023/10/20 08:18:58;;;;;;;5.97;3.13;;;8.20;99.90;;;;;;5032781;28;20421;-72
2023/10/20 08:21:29;;;;;;;6.18;3.30;;;8.20;99.90;;;;;;5016438;28;20038;-72
2023/10/20 08:23:58;;;;;;;5.72;2.55;;;8.20;99.90;;;;;;5032760;28;20041;-72
2023/10/20 08:26:23;;;;;;;6.72;2.83;;;8.20;99.90;;;;;;5016560;28;20042;-72
2023/10/20 08:28:49;;;;;;;5.28;2.85;;;8.20;99.90;;;;;;5031874;28;20041;-72
2023/10/20 08:31:18;;;;;;;5.55;2.58;;;8.20;99.90;;;;;;5032668;28;20064;-72
2023/10/20 08:33:44;;;;;;;5.25;2.85;;;8.20;99.90;;;;;;5032587;28;20042;-72
2023/10/20 08:36:15;;;;;;;5.65;2.58;;;8.20;99.90;;;;;;5032554;28;20038;-72
2023/10/20 08:38:43;;;;;;;4.90;2.25;;;8.20;99.90;;;;;;5032360;28;20468;-72
2023/10/20 08:41:10;;;;;;;2.63;1.67;;;8.10;99.90;;;;;;5016231;28;20111;-72
2023/10/20 08:43:41;;;;;;;5.15;2.40;;;8.20;99.90;;;;;;5032490;28;20069;-72
2023/10/20 08:46:08;;;;;;;4.75;2.13;;;8.10;99.90;;;;;;5032378;28;20041;-72
2023/10/20 08:48:39;;;;;;;3.95;1.58;;;8.10;99.90;;;;;;5032438;28;20056;-72
2023/10/20 08:51:05;;;;;;;4.20;1.80;;;8.10;99.90;;;;;;5032580;28;20041;-72
2023/10/20 08:53:34;;;;;;;4.07;1.80;;;8.10;99.90;;;;;;5032400;28;20529;-72
2023/10/20 08:56:01;;;;;;;2.92;1.55;;;8.10;99.90;;;;;;5032544;28;20107;-72
2023/10/20 08:58:29;;;;;;;3.75;1.55;;;8.10;99.90;;;;;;5032341;28;20045;-69
2023/10/20 09:00:56;;;;;;;3.83;1.60;;;8.10;99.90;;;;;;5032089;28;20057;-70
2023/10/20 09:03:21;;;;;;;2.83;1.35;;;8.10;99.90;;;;;;5032370;28;20052;-70
2023/10/20 09:05:47;;;;;;;5.18;1.75;;;8.10;99.90;;;;;;5032358;28;20463;-70
2023/10/20 09:08:12;;;;;;;3.47;1.60;;;8.10;99.90;;;;;;5031984;28;20497;-69
2023/10/20 09:10:47;;;;;;;3.53;1.30;;;8.00;99.90;;;;;;5031979;28;20037;-69
2023/10/20 09:13:13;;;;;;;3.80;1.60;;;8.10;99.90;;;;;;5031986;28;20068;-70
2023/10/20 09:15:39;;;;;;;4.28;1.50;;;8.00;99.90;;;;;;5031946;28;20073;-70
2023/10/20 09:18:08;;;;;;;3.38;1.50;;;8.10;99.90;;;;;;5032291;28;20102;-69
2023/10/20 09:20:34;;;;;;;2.80;1.23;;;8.00;99.90;;;;;;5031912;28;20074;-69
2023/10/20 09:23:00;;;;;;;2.85;1.50;;;8.00;99.90;;;;;;5031844;28;20379;-69
2023/10/20 09:25:26;;;;;;;2.75;1.30;;;8.00;99.90;;;;;;5031830;28;20298;-69
2023/10/20 09:27:52;;;;;;;1.95;1.30;;;7.90;99.90;;;;;;5031733;28;20501;-69
2023/10/20 09:30:18;;;;;;;2.83;1.35;;;7.90;99.90;;;;;;5031790;28;20038;-70
2023/10/20 09:32:44;;;;;;;3.00;1.05;;;7.90;99.90;;;;;;5032050;28;20049;-70
2023/10/20 09:35:10;;;;;;;1.88;1.17;;;7.90;99.90;;;;;;5031799;28;20041;-70
2023/10/20 09:37:36;;;;;;;4.18;1.20;;;7.90;99.90;;;;;;5031669;28;20124;-69
2023/10/20 09:40:09;;;;;;;2.53;1.23;;;7.90;99.90;;;;;;5032212;28;20129;-71
2023/10/20 09:42:58;;;;;;;;;;;7.90;99.90;;;;;;5037030;28;20033;-70
2023/10/20 09:45:36;;;;;;;2.50;1.25;;;7.90;99.90;;;;;;5036236;28;20003;-70
2023/10/20 09:48:11;;;;;;;3.08;1.20;;;7.90;99.90;;;;;;5035499;28;20498;-69
2023/10/20 09:50:37;;;;;;;2.38;1.08;;;7.90;99.90;;;;;;5035666;28;20048;-70
2023/10/20 09:53:03;;;;;;;1.92;0.90;;;7.90;99.90;;;;;;5035887;28;20045;-70
2023/10/20 09:55:30;;;;;;;1.70;0.90;;;7.90;99.90;;;;;;5035583;28;20069;-70
2023/10/20 09:57:56;;;;;;;1.10;0.77;;;7.90;99.90;;;;;;5035466;28;20528;-69
2023/10/20 10:00:34;;;;;;;1.50;0.90;;;7.90;99.90;;;;;;5035373;28;20042;-70
2023/10/20 10:03:00;;;;;;;1.98;1.00;;;7.80;99.90;;;;;;5035653;28;20133;-70
2023/10/20 10:05:29;;;;;;;1.73;0.90;;;7.80;99.90;;;;;;5035423;28;20116;-69
2023/10/20 10:08:08;;;;;;;2.03;0.90;;;7.90;99.90;;;;;;5035271;28;20033;-69
2023/10/20 10:10:35;;;;;;;1.80;1.00;;;7.80;99.90;;;;;;5035249;28;20444;-69
2023/10/20 10:13:07;;;;;;;2.95;1.00;;;7.80;99.90;;;;;;5035202;28;20503;-69
2023/10/20 10:15:45;;;;;;;1.48;0.60;;;7.80;99.90;;;;;;5035243;28;20037;-70
2023/10/20 10:18:13;;;;;;;1.55;0.80;;;7.80;99.90;;;;;;5018651;28;20049;-70
2023/10/20 10:20:48;;;;;;;1.55;0.80;;;7.80;99.90;;;;;;5035027;28;20446;-70
2023/10/20 10:23:14;;;;;;;1.00;0.60;;;7.80;99.90;;;;;;5035024;28;20045;-70
2023/10/20 10:25:44;;;;;;;1.02;0.52;;;7.80;99.90;;;;;;5034998;28;20073;-72
2023/10/20 10:28:11;;;;;;;2.03;0.68;;;7.80;99.90;;;;;;5034815;28;20556;-72
2023/10/20 10:30:39;;;;;;;2.55;0.68;;;7.80;99.90;;;;;;5034909;28;20073;-72
2023/10/20 10:33:06;;;;;;;1.65;0.57;;;7.80;99.90;;;;;;5034901;28;20045;-72
2023/10/20 10:35:32;;;;;;;0.40;0.40;;;7.80;99.90;;;;;;5034816;28;20124;-72
2023/10/20 10:37:58;;;;;;;1.63;0.50;;;7.80;99.90;;;;;;5034740;28;20128;-72
2023/10/20 10:40:25;;;;;;;2.13;0.68;;;7.70;99.90;;;;;;5034661;28;20034;-72
2023/10/20 10:42:52;;;;;;;0.98;0.60;;;7.70;99.90;;;;;;5034951;28;20064;-72
2023/10/20 10:45:22;;;;;;;1.33;0.63;;;7.70;99.90;;;;;;5018464;28;20041;-72
2023/10/20 10:47:49;;;;;;;0.77;0.50;;;7.70;99.90;;;;;;5034683;28;20048;-72
2023/10/20 10:50:16;;;;;;;0.70;0.50;;;7.70;99.90;;;;;;5034533;28;20048;-73
2023/10/20 10:52:43;;;;;;;0.80;0.40;;;7.70;99.90;;;;;;5033635;28;20076;-73
2023/10/20 10:55:09;;;;;;;1.05;0.43;;;7.70;99.90;;;;;;5034467;28;20053;-72
2023/10/20 10:57:35;;;;;;;0.60;0.50;;;7.60;99.90;;;;;;5034389;28;20041;-72
2023/10/20 11:00:03;;;;;;;1.30;0.63;;;7.70;99.90;;;;;;5034528;28;20041;-73
2023/10/20 11:02:30;;;;;;;0.73;0.40;;;7.70;99.90;;;;;;5034345;28;20038;-72
2023/10/20 11:04:55;;;;;;;1.45;0.60;;;7.70;99.90;;;;;;5017914;28;20034;-72
2023/10/20 11:07:22;;;;;;;1.23;0.60;;;7.70;99.90;;;;;;5034373;28;20116;-72
2023/10/20 11:09:48;;;;;;;2.67;0.50;;;7.70;99.90;;;;;;5034266;28;20120;-72
2023/10/20 11:12:14;;;;;;;1.00;0.57;;;7.70;99.90;;;;;;5034396;28;20129;-72
2023/10/20 11:14:40;;;;;;;0.57;0.32;;;7.70;99.90;;;;;;5034057;28;20422;-72
2023/10/20 11:17:05;;;;;;;0.90;0.40;;;7.60;99.90;;;;;;5017738;28;20049;-71
2023/10/20 11:19:31;;;;;;;2.90;0.52;;;7.70;99.90;;;;;;5017420;28;20041;-72
2023/10/20 11:21:57;;;;;;;2.13;0.63;;;7.60;99.90;;;;;;5033963;28;20083;-72
2023/10/20 11:24:34;;;;;;;1.00;0.40;;;7.70;99.90;;;;;;5033897;28;20095;-72
2023/10/20 11:27:05;;;;;;;0.80;0.35;;;7.70;99.90;;;;;;5034054;28;20041;-71
2023/10/20 11:29:32;;;;;;;0.93;0.40;;;7.70;99.90;;;;;;5033798;28;20493;-71
2023/10/20 11:32:06;;;;;;;0.82;0.45;;;7.70;99.90;;;;;;5033995;28;20079;-72
2023/10/20 11:34:32;;;;;;;1.00;0.32;;;7.70;99.90;;;;;;5034025;28;20045;-70
2023/10/20 11:36:59;;;;;;;0.95;0.50;;;7.70;99.90;;;;;;5033588;28;20095;-70
2023/10/20 11:39:25;;;;;;;1.75;0.30;;;7.70;99.90;;;;;;5033547;28;20041;-70
2023/10/20 11:41:52;;;;;;;1.10;0.30;;;7.70;99.90;;;;;;5033837;28;20103;-70
2023/10/20 11:44:17;;;;;;;1.48;0.47;;;7.70;99.90;;;;;;5033533;28;20501;-70
2023/10/20 11:46:43;;;;;;;0.98;0.30;;;7.70;99.90;;;;;;5033327;28;20039;-70
2023/10/20 11:49:10;;;;;;;0.93;0.40;;;7.60;99.90;;;;;;5033466;28;20037;-70
2023/10/20 11:51:38;;;;;;;1.13;0.45;;;7.60;99.90;;;;;;5033462;28;20125;-70
2023/10/20 11:54:04;;;;;;;1.95;0.40;;;7.60;99.90;;;;;;5033349;28;20094;-70
2023/10/20 11:56:29;;;;;;;0.52;0.40;;;7.70;99.90;;;;;;5033291;28;20038;-70
2023/10/20 11:58:55;;;;;;;3.05;0.60;;;7.70;99.90;;;;;;5033407;28;20129;-70
2023/10/20 12:01:20;;;;;;;0.63;0.30;;;7.70;99.90;;;;;;5033199;28;20037;-70
2023/10/20 12:03:46;;;;;;;0.47;0.30;;;7.70;99.90;;;;;;5016734;28;20037;-70
2023/10/20 12:06:11;;;;;;;0.40;0.30;;;7.60;99.90;;;;;;5033112;28;20042;-70
2023/10/20 12:08:37;;;;;;;0.73;0.30;;;7.60;99.90;;;;;;5032984;28;20033;-70
2023/10/20 12:11:03;;;;;;;1.02;0.40;;;7.70;99.90;;;;;;5033278;28;20034;-70
2023/10/20 12:13:28;;;;;;;1.98;0.32;;;7.60;99.90;;;;;;5032933;28;20509;-70
2023/10/20 12:15:54;;;;;;;0.85;0.35;;;7.70;99.90;;;;;;5033201;28;20152;-70
2023/10/20 12:18:20;;;;;;;2.08;0.55;;;7.70;99.90;;;;;;5032730;28;20046;-70
2023/10/20 12:20:47;;;;;;;0.88;0.40;;;7.70;99.90;;;;;;5032889;28;20033;-70
2023/10/20 12:23:13;;;;;;;0.88;0.32;;;7.70;99.90;;;;;;5033129;28;20041;-70
2023/10/20 12:25:38;;;;;;;1.45;0.40;;;7.70;99.90;;;;;;5032966;28;20398;-70
2023/10/20 12:28:05;;;;;;;1.25;0.38;;;7.60;99.90;;;;;;5033058;28;20048;-70
2023/10/20 12:30:32;;;;;;;1.02;0.30;;;7.70;99.90;;;;;;5032892;28;20045;-70
2023/10/20 12:32:58;;;;;;;1.23;0.70;;;7.70;99.90;;;;;;5032590;28;20038;-70
2023/10/20 12:35:23;;;;;;;0.77;0.43;;;7.70;99.90;;;;;;5032595;28;20065;-69
2023/10/20 12:37:49;;;;;;;0.80;0.40;;;7.70;99.90;;;;;;5032518;28;20041;-69
2023/10/20 12:40:15;;;;;;;0.82;0.35;;;7.70;99.90;;;;;;5032422;28;20041;-70
2023/10/20 12:42:41;;;;;;;0.43;0.38;;;7.70;99.90;;;;;;5032411;28;20055;-70
2023/10/20 12:45:11;;;;;;;0.50;0.30;;;7.80;99.90;;;;;;5032399;28;20124;-70
2023/10/20 12:47:36;;;;;;;0.68;0.30;;;7.80;99.90;;;;;;5032421;28;20037;-70
2023/10/20 12:50:03;;;;;;;0.20;0.13;;;7.70;99.90;;;;;;5032600;28;20524;-71
2023/10/20 12:52:29;;;;;;;0.77;0.30;;;7.70;99.90;;;;;;5032574;28;20045;-71
2023/10/20 12:54:54;;;;;;;0.65;0.20;;;7.70;99.90;;;;;;5032270;28;20410;-71
2023/10/20 12:57:20;;;;;;;0.98;0.30;;;7.70;99.90;;;;;;5032113;28;20138;-71
2023/10/20 12:59:46;;;;;;;0.63;0.30;;;7.60;99.90;;;;;;5032100;28;20044;-70
2023/10/20 13:02:11;;;;;;;0.93;0.25;;;7.60;99.90;;;;;;5032369;28;20041;-70
2023/10/20 13:04:37;;;;;;;0.75;0.30;;;7.60;99.90;;;;;;5032231;28;20432;-70
2023/10/20 13:07:03;;;;;;;0.20;0.20;;;7.60;99.90;;;;;;5031877;28;20570;-71
2023/10/20 13:09:28;;;;;;;1.77;0.20;;;7.60;99.90;;;;;;5032256;28;20030;-71
2023/10/20 13:11:57;;;;;;;1.55;0.40;;;7.60;99.90;;;;;;5032037;28;20493;-71